メインページ
METAR-TAF:

METAR-TAF

空港 :

ホセ・マルティ国際空港

ハバナ, キューバ

緯度: 22-59N, 経度: 082-24W, 海抜: 59m

現時点の気象観測

当レポートは47分前の08:55(UTC)に作成
北東の風 5kt
気温 21°C
湿度 100%
気圧 1015 hPa
視程: 9000m
高度3000ftの雲はほとんどない
高度6000ftの雲は散在している

METAR: MUHA 200855Z 04005KT 9000 FEW030 SCT060 21/21 Q1015

時間: 05:42 (09:42 UTC)

予報

当レポートは4時間42分前の05:00(UTC)に作成
予報は20日の 06時(UTC)から 21日の 06時(UTC)まで有効
変向風 3kt
視程: 9000m
高度3000ftの雲はほとんどない
高度18000ftの千切れ雲あり
20日の 14時(UTC)から 20日の 16時(UTC)まで徐々に
東/南東の風 10kt
20日の 19時(UTC)から 20日の 24時(UTC)まで一時的に
視程: 3000m
高度1800ftの雲はほとんどない, 積乱雲.
高度2000ftの千切れ雲あり
激しい雷雨, 雨
21日の 02時(UTC)から 21日の 04時(UTC)まで徐々に
変向風 3kt

TAF: MUHA 200500Z 2006/2106 VRB03KT 9000 FEW030 BKN180 BECMG 2014/2016 11010KT TEMPO 2019/2024 3000 TSRA FEW018CB BKN020 BECMG 2102/2104 VRB03KT

4,000以上の空港の気象観測と天気予報(METAR報とTAF報)

利用可能な観測所は地図上に黄色い丸と赤い丸で示す。

丸の上にカーソルを重ねると観測所名を参照できる。

次にクリックすると気象観測と天気予報を参照できる。

マップの切り替え:黒色「×」印の緑ボタンをクリックして拡大、「-」印の緑ボタンをクリックして縮小、緑色の三角印をクリックして隣りの地図に切り替え


METAR-TAF: